sensor_id;sensor_type;location;lat;lon;timestamp;pressure;altitude;pressure_sealevel;temperature;humidity
11124;BME280;5616;42.692;23.312;2022-12-17T00:00:42;94901.41;;;7.72;100.00
11124;BME280;5616;42.692;23.312;2022-12-17T00:03:26;94916.66;;;7.73;100.00
11124;BME280;5616;42.692;23.312;2022-12-17T00:06:11;94875.69;;;7.72;100.00
11124;BME280;5616;42.692;23.312;2022-12-17T00:08:57;94905.28;;;7.68;100.00
11124;BME280;5616;42.692;23.312;2022-12-17T00:11:41;94891.47;;;7.69;100.00
11124;BME280;5616;42.692;23.312;2022-12-17T00:14:25;94903.34;;;7.70;100.00
11124;BME280;5616;42.692;23.312;2022-12-17T00:17:10;94910.13;;;7.63;100.00
11124;BME280;5616;42.692;23.312;2022-12-17T00:19:54;94908.38;;;7.63;100.00
11124;BME280;5616;42.692;23.312;2022-12-17T00:22:39;94896.63;;;7.69;100.00
11124;BME280;5616;42.692;23.312;2022-12-17T00:25:25;94907.09;;;7.59;100.00
11124;BME280;5616;42.692;23.312;2022-12-17T00:28:09;94894.72;;;7.63;100.00
11124;BME280;5616;42.692;23.312;2022-12-17T00:30:54;94908.06;;;7.58;100.00
11124;BME280;5616;42.692;23.312;2022-12-17T00:33:38;94900.34;;;7.58;100.00
11124;BME280;5616;42.692;23.312;2022-12-17T00:36:24;94902.00;;;7.43;100.00
11124;BME280;5616;42.692;23.312;2022-12-17T00:39:09;94896.38;;;7.48;100.00
11124;BME280;5616;42.692;23.312;2022-12-17T00:41:54;94893.81;;;7.48;100.00
11124;BME280;5616;42.692;23.312;2022-12-17T00:44:35;94886.13;;;7.48;100.00
11124;BME280;5616;42.692;23.312;2022-12-17T00:47:19;94877.28;;;7.50;100.00
11124;BME280;5616;42.692;23.312;2022-12-17T00:50:05;94893.63;;;7.49;100.00
11124;BME280;5616;42.692;23.312;2022-12-17T00:52:51;94884.41;;;7.32;100.00
11124;BME280;5616;42.692;23.312;2022-12-17T00:55:35;94889.34;;;7.42;100.00
11124;BME280;5616;42.692;23.312;2022-12-17T00:58:21;94881.63;;;7.42;100.00
11124;BME280;5616;42.692;23.312;2022-12-17T01:01:05;94881.84;;;7.32;100.00
11124;BME280;5616;42.692;23.312;2022-12-17T01:03:50;94877.97;;;7.28;100.00
11124;BME280;5616;42.692;23.312;2022-12-17T01:06:34;94885.25;;;7.16;100.00
11124;BME280;5616;42.692;23.312;2022-12-17T01:09:18;94887.31;;;7.21;100.00
11124;BME280;5616;42.692;23.312;2022-12-17T01:12:02;94905.13;;;7.22;100.00
11124;BME280;5616;42.692;23.312;2022-12-17T01:14:48;94893.09;;;7.23;100.00
11124;BME280;5616;42.692;23.312;2022-12-17T01:17:32;94884.25;;;7.25;100.00
11124;BME280;5616;42.692;23.312;2022-12-17T01:20:17;94910.25;;;7.22;100.00
11124;BME280;5616;42.692;23.312;2022-12-17T01:23:01;94888.13;;;7.21;100.00
11124;BME280;5616;42.692;23.312;2022-12-17T01:25:51;94894.72;;;7.16;100.00
11124;BME280;5616;42.692;23.312;2022-12-17T01:28:35;94887.00;;;7.24;100.00
11124;BME280;5616;42.692;23.312;2022-12-17T01:31:21;94897.91;;;7.18;100.00
11124;BME280;5616;42.692;23.312;2022-12-17T01:34:05;94885.06;;;7.26;100.00
11124;BME280;5616;42.692;23.312;2022-12-17T01:36:50;94892.59;;;7.19;100.00
11124;BME280;5616;42.692;23.312;2022-12-17T01:39:34;94890.00;;;7.27;100.00
11124;BME280;5616;42.692;23.312;2022-12-17T01:42:19;94893.88;;;7.31;100.00
11124;BME280;5616;42.692;23.312;2022-12-17T01:45:05;94887.75;;;7.32;100.00
11124;BME280;5616;42.692;23.312;2022-12-17T01:47:57;94894.50;;;7.33;100.00
11124;BME280;5616;42.692;23.312;2022-12-17T01:50:45;94899.63;;;7.33;100.00
11124;BME280;5616;42.692;23.312;2022-12-17T01:53:34;94872.63;;;7.37;100.00
11124;BME280;5616;42.692;23.312;2022-12-17T01:56:21;94868.97;;;7.40;100.00
11124;BME280;5616;42.692;23.312;2022-12-17T01:59:06;94908.75;;;7.44;100.00
11124;BME280;5616;42.692;23.312;2022-12-17T02:01:51;94871.03;;;7.45;100.00
11124;BME280;5616;42.692;23.312;2022-12-17T02:04:37;94870.84;;;7.46;100.00
11124;BME280;5616;42.692;23.312;2022-12-17T02:07:36;94855.94;;;7.42;100.00
11124;BME280;5616;42.692;23.312;2022-12-17T02:10:25;94867.66;;;7.44;100.00
11124;BME280;5616;42.692;23.312;2022-12-17T02:13:15;94856.88;;;7.49;100.00
11124;BME280;5616;42.692;23.312;2022-12-17T02:16:08;94852.34;;;7.51;100.00
11124;BME280;5616;42.692;23.312;2022-12-17T02:18:57;94882.25;;;7.44;100.00
11124;BME280;5616;42.692;23.312;2022-12-17T02:21:51;94872.75;;;7.52;100.00
11124;BME280;5616;42.692;23.312;2022-12-17T02:24:44;94862.97;;;7.56;100.00
11124;BME280;5616;42.692;23.312;2022-12-17T02:27:33;94876.09;;;7.61;100.00
11124;BME280;5616;42.692;23.312;2022-12-17T02:30:18;94851.03;;;7.63;100.00
11124;BME280;5616;42.692;23.312;2022-12-17T02:33:02;94864.50;;;7.65;100.00
11124;BME280;5616;42.692;23.312;2022-12-17T02:35:52;94858.13;;;7.61;100.00
11124;BME280;5616;42.692;23.312;2022-12-17T02:38:37;94846.84;;;7.62;100.00
11124;BME280;5616;42.692;23.312;2022-12-17T02:41:24;94860.50;;;7.62;100.00
11124;BME280;5616;42.692;23.312;2022-12-17T02:44:14;94846.53;;;7.65;100.00
11124;BME280;5616;42.692;23.312;2022-12-17T02:47:01;94845.56;;;7.66;100.00
11124;BME280;5616;42.692;23.312;2022-12-17T02:49:47;94849.56;;;7.68;100.00
11124;BME280;5616;42.692;23.312;2022-12-17T02:52:38;94829.81;;;7.69;100.00
11124;BME280;5616;42.692;23.312;2022-12-17T02:55:22;94830.59;;;7.69;100.00
11124;BME280;5616;42.692;23.312;2022-12-17T02:58:07;94815.63;;;7.73;100.00
11124;BME280;5616;42.692;23.312;2022-12-17T03:00:53;94824.66;;;7.69;100.00
11124;BME280;5616;42.692;23.312;2022-12-17T03:03:37;94800.22;;;7.73;100.00
11124;BME280;5616;42.692;23.312;2022-12-17T03:06:21;94798.63;;;7.72;100.00
11124;BME280;5616;42.692;23.312;2022-12-17T03:09:07;94817.34;;;7.58;100.00
11124;BME280;5616;42.692;23.312;2022-12-17T03:11:51;94802.03;;;7.64;100.00
11124;BME280;5616;42.692;23.312;2022-12-17T03:14:35;94813.78;;;7.59;100.00
11124;BME280;5616;42.692;23.312;2022-12-17T03:17:27;94793.88;;;7.61;100.00
11124;BME280;5616;42.692;23.312;2022-12-17T03:20:12;94812.66;;;7.61;100.00
11124;BME280;5616;42.692;23.312;2022-12-17T03:23:01;94803.03;;;7.63;100.00
11124;BME280;5616;42.692;23.312;2022-12-17T03:25:45;94806.72;;;7.61;100.00
11124;BME280;5616;42.692;23.312;2022-12-17T03:28:29;94815.41;;;7.60;100.00
11124;BME280;5616;42.692;23.312;2022-12-17T03:31:13;94810.06;;;7.61;100.00
11124;BME280;5616;42.692;23.312;2022-12-17T03:33:59;94805.59;;;7.63;100.00
11124;BME280;5616;42.692;23.312;2022-12-17T03:36:43;94805.75;;;7.62;100.00
11124;BME280;5616;42.692;23.312;2022-12-17T03:39:36;94791.31;;;7.61;100.00
11124;BME280;5616;42.692;23.312;2022-12-17T03:42:21;94811.41;;;7.57;100.00
11124;BME280;5616;42.692;23.312;2022-12-17T03:45:06;94801.34;;;7.48;100.00
11124;BME280;5616;42.692;23.312;2022-12-17T03:47:50;94812.34;;;7.56;100.00
11124;BME280;5616;42.692;23.312;2022-12-17T03:50:36;94791.31;;;7.61;100.00
11124;BME280;5616;42.692;23.312;2022-12-17T03:53:20;94811.22;;;7.59;100.00
11124;BME280;5616;42.692;23.312;2022-12-17T03:56:05;94810.88;;;7.62;100.00
11124;BME280;5616;42.692;23.312;2022-12-17T03:58:49;94795.72;;;7.75;100.00
11124;BME280;5616;42.692;23.312;2022-12-17T04:01:38;94839.69;;;7.80;100.00
11124;BME280;5616;42.692;23.312;2022-12-17T04:04:48;94792.97;;;7.76;100.00
11124;BME280;5616;42.692;23.312;2022-12-17T04:07:39;94811.59;;;7.78;100.00
11124;BME280;5616;42.692;23.312;2022-12-17T04:10:23;94797.25;;;7.84;100.00
11124;BME280;5616;42.692;23.312;2022-12-17T04:13:07;94804.78;;;7.85;100.00
11124;BME280;5616;42.692;23.312;2022-12-17T04:15:51;94812.78;;;7.90;100.00
11124;BME280;5616;42.692;23.312;2022-12-17T04:18:37;94819.41;;;7.85;100.00
11124;BME280;5616;42.692;23.312;2022-12-17T04:21:36;94816.50;;;7.88;100.00
11124;BME280;5616;42.692;23.312;2022-12-17T04:24:21;94802.50;;;7.90;100.00
11124;BME280;5616;42.692;23.312;2022-12-17T04:27:05;94836.56;;;7.92;100.00
11124;BME280;5616;42.692;23.312;2022-12-17T04:29:50;94827.13;;;7.85;100.00
11124;BME280;5616;42.692;23.312;2022-12-17T04:32:34;94824.69;;;7.91;100.00
11124;BME280;5616;42.692;23.312;2022-12-17T04:35:18;94836.22;;;7.95;100.00
11124;BME280;5616;42.692;23.312;2022-12-17T04:38:02;94778.16;;;8.01;100.00
11124;BME280;5616;42.692;23.312;2022-12-17T04:40:48;94799.22;;;8.05;100.00
11124;BME280;5616;42.692;23.312;2022-12-17T04:43:32;94798.25;;;8.06;100.00
11124;BME280;5616;42.692;23.312;2022-12-17T04:46:17;94830.97;;;8.12;100.00
11124;BME280;5616;42.692;23.312;2022-12-17T04:49:01;94861.66;;;8.13;100.00
11124;BME280;5616;42.692;23.312;2022-12-17T04:51:45;94822.91;;;8.15;100.00
11124;BME280;5616;42.692;23.312;2022-12-17T04:54:30;94868.88;;;8.18;100.00
11124;BME280;5616;42.692;23.312;2022-12-17T04:57:15;94842.28;;;8.25;100.00
11124;BME280;5616;42.692;23.312;2022-12-17T05:00:00;94861.59;;;8.29;100.00
11124;BME280;5616;42.692;23.312;2022-12-17T05:02:44;94849.00;;;8.34;100.00
11124;BME280;5616;42.692;23.312;2022-12-17T05:05:28;94851.94;;;8.31;100.00
11124;BME280;5616;42.692;23.312;2022-12-17T05:08:13;94879.06;;;8.34;100.00
11124;BME280;5616;42.692;23.312;2022-12-17T05:11:00;94875.34;;;8.36;100.00
11124;BME280;5616;42.692;23.312;2022-12-17T05:13:46;94848.34;;;8.32;100.00
11124;BME280;5616;42.692;23.312;2022-12-17T05:16:30;94895.47;;;8.33;100.00
11124;BME280;5616;42.692;23.312;2022-12-17T05:19:17;94906.41;;;8.35;100.00
11124;BME280;5616;42.692;23.312;2022-12-17T05:22:01;94888.69;;;8.40;100.00
11124;BME280;5616;42.692;23.312;2022-12-17T05:24:45;94854.44;;;8.39;100.00
11124;BME280;5616;42.692;23.312;2022-12-17T05:27:30;94899.13;;;8.38;100.00
11124;BME280;5616;42.692;23.312;2022-12-17T05:30:15;94870.41;;;8.35;100.00
11124;BME280;5616;42.692;23.312;2022-12-17T05:33:01;94860.19;;;8.41;100.00
11124;BME280;5616;42.692;23.312;2022-12-17T05:35:46;94862.44;;;8.44;100.00
11124;BME280;5616;42.692;23.312;2022-12-17T05:38:31;94867.56;;;8.44;100.00
11124;BME280;5616;42.692;23.312;2022-12-17T05:41:15;94900.34;;;8.50;100.00
11124;BME280;5616;42.692;23.312;2022-12-17T05:44:00;94894.84;;;8.53;100.00
11124;BME280;5616;42.692;23.312;2022-12-17T05:46:46;94852.50;;;8.56;100.00
11124;BME280;5616;42.692;23.312;2022-12-17T05:49:30;94873.28;;;8.54;100.00
11124;BME280;5616;42.692;23.312;2022-12-17T05:52:14;94876.38;;;8.50;100.00
11124;BME280;5616;42.692;23.312;2022-12-17T05:54:58;94862.81;;;8.56;100.00
11124;BME280;5616;42.692;23.312;2022-12-17T05:57:42;94865.22;;;8.57;100.00
11124;BME280;5616;42.692;23.312;2022-12-17T06:00:29;94880.50;;;8.36;100.00
11124;BME280;5616;42.692;23.312;2022-12-17T06:03:15;94891.34;;;8.46;100.00
11124;BME280;5616;42.692;23.312;2022-12-17T06:05:59;94876.81;;;8.53;100.00
11124;BME280;5616;42.692;23.312;2022-12-17T06:08:43;94897.06;;;8.56;100.00
11124;BME280;5616;42.692;23.312;2022-12-17T06:11:28;94899.75;;;8.63;100.00
11124;BME280;5616;42.692;23.312;2022-12-17T06:14:12;94925.94;;;8.67;100.00
11124;BME280;5616;42.692;23.312;2022-12-17T06:16:56;94907.13;;;8.66;100.00
11124;BME280;5616;42.692;23.312;2022-12-17T06:19:42;94901.00;;;8.67;100.00
11124;BME280;5616;42.692;23.312;2022-12-17T06:22:26;94906.88;;;8.61;100.00
11124;BME280;5616;42.692;23.312;2022-12-17T06:25:11;94935.38;;;8.51;100.00
11124;BME280;5616;42.692;23.312;2022-12-17T06:27:58;94915.06;;;8.56;100.00
11124;BME280;5616;42.692;23.312;2022-12-17T06:30:48;94960.09;;;8.60;100.00
11124;BME280;5616;42.692;23.312;2022-12-17T06:33:33;94922.94;;;8.63;100.00
11124;BME280;5616;42.692;23.312;2022-12-17T06:36:18;94943.59;;;8.70;100.00
11124;BME280;5616;42.692;23.312;2022-12-17T06:39:03;94957.91;;;8.72;100.00
11124;BME280;5616;42.692;23.312;2022-12-17T06:42:01;94952.06;;;8.78;100.00
11124;BME280;5616;42.692;23.312;2022-12-17T06:44:47;94961.69;;;8.84;100.00
11124;BME280;5616;42.692;23.312;2022-12-17T06:47:31;94954.59;;;8.86;100.00
11124;BME280;5616;42.692;23.312;2022-12-17T06:50:16;94964.38;;;8.91;100.00
11124;BME280;5616;42.692;23.312;2022-12-17T06:53:03;94944.84;;;8.96;100.00
11124;BME280;5616;42.692;23.312;2022-12-17T06:55:48;94944.16;;;9.02;100.00
11124;BME280;5616;42.692;23.312;2022-12-17T06:58:32;94974.00;;;9.11;100.00
11124;BME280;5616;42.692;23.312;2022-12-17T07:01:17;95002.47;;;9.33;100.00
11124;BME280;5616;42.692;23.312;2022-12-17T07:04:02;95058.91;;;9.65;100.00
11124;BME280;5616;42.692;23.312;2022-12-17T07:06:46;95059.38;;;9.98;99.92
11124;BME280;5616;42.692;23.312;2022-12-17T07:09:32;95044.25;;;10.09;99.14
11124;BME280;5616;42.692;23.312;2022-12-17T07:12:16;95034.22;;;10.29;99.09
11124;BME280;5616;42.692;23.312;2022-12-17T07:15:00;95014.09;;;10.39;99.46
11124;BME280;5616;42.692;23.312;2022-12-17T07:17:53;95072.81;;;10.52;100.00
11124;BME280;5616;42.692;23.312;2022-12-17T07:20:38;95080.72;;;10.65;100.00
11124;BME280;5616;42.692;23.312;2022-12-17T07:23:22;95076.00;;;10.68;100.00
11124;BME280;5616;42.692;23.312;2022-12-17T07:26:08;95042.91;;;10.57;100.00
11124;BME280;5616;42.692;23.312;2022-12-17T07:28:52;95023.38;;;10.69;100.00
11124;BME280;5616;42.692;23.312;2022-12-17T07:31:36;95003.03;;;10.81;100.00
11124;BME280;5616;42.692;23.312;2022-12-17T07:34:20;95011.38;;;10.83;100.00
11124;BME280;5616;42.692;23.312;2022-12-17T07:37:01;95018.03;;;10.92;99.79
11124;BME280;5616;42.692;23.312;2022-12-17T07:39:45;94985.03;;;10.87;100.00
11124;BME280;5616;42.692;23.312;2022-12-17T07:42:31;95002.78;;;10.97;100.00
11124;BME280;5616;42.692;23.312;2022-12-17T07:45:16;95011.59;;;11.02;100.00
11124;BME280;5616;42.692;23.312;2022-12-17T07:48:00;94988.22;;;10.89;99.43
11124;BME280;5616;42.692;23.312;2022-12-17T07:50:47;94996.41;;;10.93;100.00
11124;BME280;5616;42.692;23.312;2022-12-17T07:53:32;94942.09;;;10.86;100.00
11124;BME280;5616;42.692;23.312;2022-12-17T07:56:16;94946.44;;;10.86;100.00
11124;BME280;5616;42.692;23.312;2022-12-17T07:59:02;94929.25;;;10.72;100.00
11124;BME280;5616;42.692;23.312;2022-12-17T08:01:46;94919.41;;;10.82;100.00
11124;BME280;5616;42.692;23.312;2022-12-17T08:04:31;94928.94;;;11.09;100.00
11124;BME280;5616;42.692;23.312;2022-12-17T08:07:15;94966.53;;;11.12;100.00
11124;BME280;5616;42.692;23.312;2022-12-17T08:09:59;94978.69;;;11.39;100.00
11124;BME280;5616;42.692;23.312;2022-12-17T08:12:53;94976.94;;;11.46;100.00
11124;BME280;5616;42.692;23.312;2022-12-17T08:15:38;94974.06;;;11.62;99.51
11124;BME280;5616;42.692;23.312;2022-12-17T08:18:23;95003.06;;;11.51;100.00
11124;BME280;5616;42.692;23.312;2022-12-17T08:21:07;95001.81;;;11.47;99.78
11124;BME280;5616;42.692;23.312;2022-12-17T08:23:51;95028.34;;;11.55;100.00
11124;BME280;5616;42.692;23.312;2022-12-17T08:26:36;95030.19;;;11.61;100.00
11124;BME280;5616;42.692;23.312;2022-12-17T08:29:20;95022.97;;;11.57;99.35
11124;BME280;5616;42.692;23.312;2022-12-17T08:32:06;94991.53;;;11.53;99.52
11124;BME280;5616;42.692;23.312;2022-12-17T08:34:50;94994.91;;;11.54;100.00
11124;BME280;5616;42.692;23.312;2022-12-17T08:37:31;95001.16;;;11.66;100.00
11124;BME280;5616;42.692;23.312;2022-12-17T08:40:15;95015.19;;;11.78;99.80
11124;BME280;5616;42.692;23.312;2022-12-17T08:42:59;95018.09;;;11.96;99.33
11124;BME280;5616;42.692;23.312;2022-12-17T08:45:46;95028.94;;;12.19;98.68
11124;BME280;5616;42.692;23.312;2022-12-17T08:48:32;95047.78;;;12.41;98.66
11124;BME280;5616;42.692;23.312;2022-12-17T08:51:17;95042.28;;;12.51;97.33
11124;BME280;5616;42.692;23.312;2022-12-17T08:54:01;95031.56;;;12.73;96.30
11124;BME280;5616;42.692;23.312;2022-12-17T08:56:45;95045.56;;;12.85;95.43
11124;BME280;5616;42.692;23.312;2022-12-17T08:59:30;95041.38;;;12.91;95.47
11124;BME280;5616;42.692;23.312;2022-12-17T09:02:14;95039.59;;;12.85;96.40
11124;BME280;5616;42.692;23.312;2022-12-17T09:04:59;95054.16;;;12.99;94.88
11124;BME280;5616;42.692;23.312;2022-12-17T09:07:46;95056.84;;;13.19;94.97
11124;BME280;5616;42.692;23.312;2022-12-17T09:10:30;95060.25;;;13.32;93.17
11124;BME280;5616;42.692;23.312;2022-12-17T09:13:15;95074.25;;;13.51;92.63
11124;BME280;5616;42.692;23.312;2022-12-17T09:15:59;95091.00;;;13.68;91.88
11124;BME280;5616;42.692;23.312;2022-12-17T09:18:43;95075.66;;;13.80;91.67
11124;BME280;5616;42.692;23.312;2022-12-17T09:21:30;95092.41;;;13.97;90.60
11124;BME280;5616;42.692;23.312;2022-12-17T09:24:14;95085.00;;;14.07;89.75
11124;BME280;5616;42.692;23.312;2022-12-17T09:26:59;95096.19;;;14.07;89.95
11124;BME280;5616;42.692;23.312;2022-12-17T09:29:52;95109.19;;;14.01;89.12
11124;BME280;5616;42.692;23.312;2022-12-17T09:32:45;95122.53;;;13.91;89.18
11124;BME280;5616;42.692;23.312;2022-12-17T09:35:29;95136.53;;;13.84;89.27
11124;BME280;5616;42.692;23.312;2022-12-17T09:38:18;95150.50;;;13.76;89.33
11124;BME280;5616;42.692;23.312;2022-12-17T09:41:10;95134.69;;;13.65;89.52
11124;BME280;5616;42.692;23.312;2022-12-17T09:44:02;95138.09;;;13.52;89.86
11124;BME280;5616;42.692;23.312;2022-12-17T09:46:53;95147.25;;;13.41;90.01
11124;BME280;5616;42.692;23.312;2022-12-17T09:49:44;95154.59;;;13.31;90.60
11124;BME280;5616;42.692;23.312;2022-12-17T09:52:32;95156.34;;;13.18;90.68
11124;BME280;5616;42.692;23.312;2022-12-17T09:55:23;95121.03;;;13.10;89.93
11124;BME280;5616;42.692;23.312;2022-12-17T09:58:18;95119.03;;;13.12;90.40
11124;BME280;5616;42.692;23.312;2022-12-17T10:01:04;95129.44;;;13.19;89.76
11124;BME280;5616;42.692;23.312;2022-12-17T10:03:49;95099.09;;;13.13;89.21
11124;BME280;5616;42.692;23.312;2022-12-17T10:06:34;95119.81;;;13.06;90.23
11124;BME280;5616;42.692;23.312;2022-12-17T10:09:19;95121.41;;;13.07;89.38
11124;BME280;5616;42.692;23.312;2022-12-17T10:12:12;95108.63;;;13.06;89.66
11124;BME280;5616;42.692;23.312;2022-12-17T10:14:56;95129.38;;;13.06;90.51
11124;BME280;5616;42.692;23.312;2022-12-17T10:17:40;95147.34;;;13.07;90.89
11124;BME280;5616;42.692;23.312;2022-12-17T10:20:29;95160.06;;;13.02;89.89
11124;BME280;5616;42.692;23.312;2022-12-17T10:23:22;95171.00;;;12.98;90.70
11124;BME280;5616;42.692;23.312;2022-12-17T10:26:07;95192.06;;;12.81;91.68
11124;BME280;5616;42.692;23.312;2022-12-17T10:29:04;95169.78;;;12.53;93.65
11124;BME280;5616;42.692;23.312;2022-12-17T10:31:48;95183.28;;;12.20;95.60
11124;BME280;5616;42.692;23.312;2022-12-17T10:34:35;95174.09;;;12.11;97.18
11124;BME280;5616;42.692;23.312;2022-12-17T10:37:21;95166.47;;;12.10;98.18
11124;BME280;5616;42.692;23.312;2022-12-17T10:40:17;95139.16;;;12.01;99.20
11124;BME280;5616;42.692;23.312;2022-12-17T10:46:04;95146.84;;;11.94;100.00
11124;BME280;5616;42.692;23.312;2022-12-17T10:48:49;95150.38;;;11.87;100.00
11124;BME280;5616;42.692;23.312;2022-12-17T10:51:36;95142.56;;;11.80;100.00
11124;BME280;5616;42.692;23.312;2022-12-17T10:54:23;95126.41;;;11.78;100.00
11124;BME280;5616;42.692;23.312;2022-12-17T10:57:22;95112.28;;;11.74;100.00
11124;BME280;5616;42.692;23.312;2022-12-17T11:00:20;95095.22;;;11.80;100.00
11124;BME280;5616;42.692;23.312;2022-12-17T11:03:26;95086.59;;;12.00;100.00
11124;BME280;5616;42.692;23.312;2022-12-17T11:06:12;95077.16;;;12.20;100.00
11124;BME280;5616;42.692;23.312;2022-12-17T11:08:59;95049.56;;;12.41;99.52
11124;BME280;5616;42.692;23.312;2022-12-17T11:11:45;95060.63;;;12.62;98.56
11124;BME280;5616;42.692;23.312;2022-12-17T11:14:33;95053.72;;;12.76;97.30
11124;BME280;5616;42.692;23.312;2022-12-17T11:17:23;95065.75;;;13.03;94.61
11124;BME280;5616;42.692;23.312;2022-12-17T11:20:20;95053.47;;;13.31;95.03
11124;BME280;5616;42.692;23.312;2022-12-17T11:23:15;95078.81;;;13.62;92.92
11124;BME280;5616;42.692;23.312;2022-12-17T11:26:04;95099.78;;;13.80;91.93
11124;BME280;5616;42.692;23.312;2022-12-17T11:28:49;95103.78;;;13.96;92.33
11124;BME280;5616;42.692;23.312;2022-12-17T11:31:47;95106.78;;;13.99;92.48
11124;BME280;5616;42.692;23.312;2022-12-17T11:34:49;95124.75;;;14.01;91.41
11124;BME280;5616;42.692;23.312;2022-12-17T11:37:45;95142.31;;;14.05;91.92
11124;BME280;5616;42.692;23.312;2022-12-17T11:40:50;95137.34;;;13.97;93.34
11124;BME280;5616;42.692;23.312;2022-12-17T11:43:39;95139.72;;;13.86;93.63
11124;BME280;5616;42.692;23.312;2022-12-17T11:46:37;95149.31;;;13.79;93.71
11124;BME280;5616;42.692;23.312;2022-12-17T11:49:31;95151.06;;;13.65;94.06
11124;BME280;5616;42.692;23.312;2022-12-17T11:52:23;95139.69;;;13.60;94.05
11124;BME280;5616;42.692;23.312;2022-12-17T11:55:18;95129.50;;;13.52;94.60
11124;BME280;5616;42.692;23.312;2022-12-17T11:58:06;95130.50;;;13.44;93.62
11124;BME280;5616;42.692;23.312;2022-12-17T12:00:59;95140.00;;;13.17;95.33
11124;BME280;5616;42.692;23.312;2022-12-17T12:03:56;95136.41;;;13.18;96.14
11124;BME280;5616;42.692;23.312;2022-12-17T12:06:54;95135.81;;;13.16;96.73
11124;BME280;5616;42.692;23.312;2022-12-17T12:09:49;95151.53;;;13.15;96.91
11124;BME280;5616;42.692;23.312;2022-12-17T12:12:44;95152.56;;;13.14;97.66
11124;BME280;5616;42.692;23.312;2022-12-17T12:15:38;95154.13;;;13.08;98.63
11124;BME280;5616;42.692;23.312;2022-12-17T12:18:34;95144.38;;;13.10;98.12
11124;BME280;5616;42.692;23.312;2022-12-17T12:21:34;95146.19;;;13.23;97.73
11124;BME280;5616;42.692;23.312;2022-12-17T12:24:31;95135.50;;;13.45;98.29
11124;BME280;5616;42.692;23.312;2022-12-17T12:27:23;95134.31;;;13.61;98.10
11124;BME280;5616;42.692;23.312;2022-12-17T12:30:14;95143.31;;;13.72;98.33
11124;BME280;5616;42.692;23.312;2022-12-17T12:33:06;95142.31;;;13.79;97.51
11124;BME280;5616;42.692;23.312;2022-12-17T12:35:59;95124.34;;;13.78;95.15
11124;BME280;5616;42.692;23.312;2022-12-17T12:38:52;95117.75;;;13.69;95.74
11124;BME280;5616;42.692;23.312;2022-12-17T12:41:44;95138.50;;;13.75;95.87
11124;BME280;5616;42.692;23.312;2022-12-17T12:44:37;95135.91;;;13.75;95.51
11124;BME280;5616;42.692;23.312;2022-12-17T12:47:32;95130.34;;;13.72;93.58
11124;BME280;5616;42.692;23.312;2022-12-17T12:50:22;95125.56;;;13.82;94.00
11124;BME280;5616;42.692;23.312;2022-12-17T12:53:10;95137.94;;;13.80;94.58
11124;BME280;5616;42.692;23.312;2022-12-17T12:55:55;95136.72;;;13.76;94.07
11124;BME280;5616;42.692;23.312;2022-12-17T12:58:39;95141.72;;;13.71;94.58
11124;BME280;5616;42.692;23.312;2022-12-17T13:01:32;95147.44;;;13.40;93.93
11124;BME280;5616;42.692;23.312;2022-12-17T13:04:26;95150.19;;;13.25;95.67
11124;BME280;5616;42.692;23.312;2022-12-17T13:07:20;95147.59;;;13.25;95.92
11124;BME280;5616;42.692;23.312;2022-12-17T13:09:49;95145.81;;;13.19;96.10
11124;BME280;5616;42.692;23.312;2022-12-17T13:12:30;95149.97;;;13.20;96.64
11124;BME280;5616;42.692;23.312;2022-12-17T13:15:14;95145.38;;;13.22;97.07
11124;BME280;5616;42.692;23.312;2022-12-17T13:17:44;95118.84;;;13.14;95.19
11124;BME280;5616;42.692;23.312;2022-12-17T13:20:28;95141.19;;;13.08;96.22
11124;BME280;5616;42.692;23.312;2022-12-17T13:23:15;95140.78;;;13.11;96.28
11124;BME280;5616;42.692;23.312;2022-12-17T13:25:43;95137.78;;;13.08;94.75
11124;BME280;5616;42.692;23.312;2022-12-17T13:28:27;95139.31;;;12.96;95.73
11124;BME280;5616;42.692;23.312;2022-12-17T13:31:01;95158.22;;;12.96;96.17
11124;BME280;5616;42.692;23.312;2022-12-17T13:33:33;95143.91;;;13.00;96.56
11124;BME280;5616;42.692;23.312;2022-12-17T13:36:10;95161.63;;;12.97;96.38
11124;BME280;5616;42.692;23.312;2022-12-17T13:38:45;95158.44;;;12.95;97.18
11124;BME280;5616;42.692;23.312;2022-12-17T13:41:16;95162.44;;;12.97;96.81
11124;BME280;5616;42.692;23.312;2022-12-17T13:43:45;95162.63;;;12.96;96.51
11124;BME280;5616;42.692;23.312;2022-12-17T13:46:18;95176.78;;;12.93;97.31
11124;BME280;5616;42.692;23.312;2022-12-17T13:48:52;95171.78;;;12.92;96.97
11124;BME280;5616;42.692;23.312;2022-12-17T13:51:21;95184.34;;;12.95;96.66
11124;BME280;5616;42.692;23.312;2022-12-17T13:53:53;95163.81;;;12.93;96.94
11124;BME280;5616;42.692;23.312;2022-12-17T13:56:25;95173.94;;;12.88;96.41
11124;BME280;5616;42.692;23.312;2022-12-17T13:58:53;95170.75;;;12.86;97.13
11124;BME280;5616;42.692;23.312;2022-12-17T14:01:20;95169.34;;;12.83;97.45
11124;BME280;5616;42.692;23.312;2022-12-17T14:03:49;95168.31;;;12.78;97.37
11124;BME280;5616;42.692;23.312;2022-12-17T14:06:17;95179.84;;;12.69;98.72
11124;BME280;5616;42.692;23.312;2022-12-17T14:08:47;95184.22;;;12.75;98.88
11124;BME280;5616;42.692;23.312;2022-12-17T14:11:15;95184.06;;;12.76;98.78
11124;BME280;5616;42.692;23.312;2022-12-17T14:13:59;95183.25;;;12.76;98.32
11124;BME280;5616;42.692;23.312;2022-12-17T14:16:27;95185.03;;;12.75;97.80
11124;BME280;5616;42.692;23.312;2022-12-17T14:18:56;95191.41;;;12.73;98.15
11124;BME280;5616;42.692;23.312;2022-12-17T14:21:24;95187.78;;;12.67;98.29
11124;BME280;5616;42.692;23.312;2022-12-17T14:23:54;95193.34;;;12.64;98.35
11124;BME280;5616;42.692;23.312;2022-12-17T14:26:22;95207.06;;;12.58;98.54
11124;BME280;5616;42.692;23.312;2022-12-17T14:28:51;95208.25;;;12.56;99.10
11124;BME280;5616;42.692;23.312;2022-12-17T14:31:20;95180.50;;;12.50;98.93
11124;BME280;5616;42.692;23.312;2022-12-17T14:33:59;95198.19;;;12.40;100.00
11124;BME280;5616;42.692;23.312;2022-12-17T14:36:27;95195.59;;;12.40;100.00
11124;BME280;5616;42.692;23.312;2022-12-17T14:38:58;95204.72;;;12.36;100.00